<?xml version="1.0" encoding="UTF-8" standalone="no" ?>
<gpx xmlns="http://www.topografix.com/GPX/1/1" xmlns:xsi="http://www.w3.org/2001/XMLSchema-instance" xsi:schemaLocation="http://www.topografix.com/GPX/1/1 http://www.topografix.com/GPX/1/1/gpx.xsd" version="1.1" creator="VisuGPX - https://www.visugpx.com">
  <metadata>
    <name>Soupe aux choux 21km</name>
    <desc><![CDATA[Organisation ACP3C  www.lapierredes3communes.fr]]></desc>
  </metadata>
  <trk>
    <name><![CDATA[Rando soupe au chou 2024 OK-20105283]]></name>
    <extensions>
      <line xmlns="http://www.topografix.com/GPX/gpx_style/0/2">
        <color>0000FF</color>
        <width>4</width>
      </line>
    </extensions>
    <trkseg>
      <trkpt lat="45.67705" lon="4.30098">
        <ele>443</ele>
        <time>2024-10-19T21:30:04Z</time>
      </trkpt>
      <trkpt lat="45.67706" lon="4.30215">
        <ele>447</ele>
        <time>2024-10-19T21:31:09Z</time>
      </trkpt>
      <trkpt lat="45.6771" lon="4.30228">
        <ele>447</ele>
        <time>2024-10-19T21:31:17Z</time>
      </trkpt>
      <trkpt lat="45.67718" lon="4.30241">
        <ele>448</ele>
        <time>2024-10-19T21:31:27Z</time>
      </trkpt>
      <trkpt lat="45.67738" lon="4.30261">
        <ele>450</ele>
        <time>2024-10-19T21:31:47Z</time>
      </trkpt>
      <trkpt lat="45.67745" lon="4.3027">
        <ele>451</ele>
        <time>2024-10-19T21:31:54Z</time>
      </trkpt>
      <trkpt lat="45.67753" lon="4.30293">
        <ele>452</ele>
        <time>2024-10-19T21:32:09Z</time>
      </trkpt>
      <trkpt lat="45.67753" lon="4.30305">
        <ele>453</ele>
        <time>2024-10-19T21:32:15Z</time>
      </trkpt>
      <trkpt lat="45.67748" lon="4.30363">
        <ele>454</ele>
        <time>2024-10-19T21:32:48Z</time>
      </trkpt>
      <trkpt lat="45.67748" lon="4.3038">
        <ele>454</ele>
        <time>2024-10-19T21:32:57Z</time>
      </trkpt>
      <trkpt lat="45.6775" lon="4.30397">
        <ele>454</ele>
        <time>2024-10-19T21:33:07Z</time>
      </trkpt>
      <trkpt lat="45.67771" lon="4.30458">
        <ele>452</ele>
        <time>2024-10-19T21:33:45Z</time>
      </trkpt>
      <trkpt lat="45.6778" lon="4.30491">
        <ele>451</ele>
        <time>2024-10-19T21:34:05Z</time>
      </trkpt>
      <trkpt lat="45.67803" lon="4.30557">
        <ele>453</ele>
        <time>2024-10-19T21:34:46Z</time>
      </trkpt>
      <trkpt lat="45.67816" lon="4.30588">
        <ele>454</ele>
        <time>2024-10-19T21:35:06Z</time>
      </trkpt>
      <trkpt lat="45.67889" lon="4.30715">
        <ele>458</ele>
        <time>2024-10-19T21:36:38Z</time>
      </trkpt>
      <trkpt lat="45.67897" lon="4.3073">
        <ele>458</ele>
        <time>2024-10-19T21:36:49Z</time>
      </trkpt>
      <trkpt lat="45.67905" lon="4.3075">
        <ele>459</ele>
        <time>2024-10-19T21:37:02Z</time>
      </trkpt>
      <trkpt lat="45.67917" lon="4.30785">
        <ele>461</ele>
        <time>2024-10-19T21:37:24Z</time>
      </trkpt>
      <trkpt lat="45.67953" lon="4.30908">
        <ele>466</ele>
        <time>2024-10-19T21:38:38Z</time>
      </trkpt>
      <trkpt lat="45.67971" lon="4.30983">
        <ele>467</ele>
        <time>2024-10-19T21:39:23Z</time>
      </trkpt>
      <trkpt lat="45.67982" lon="4.31053">
        <ele>468</ele>
        <time>2024-10-19T21:40:03Z</time>
      </trkpt>
      <trkpt lat="45.67994" lon="4.31092">
        <ele>469</ele>
        <time>2024-10-19T21:40:27Z</time>
      </trkpt>
      <trkpt lat="45.68011" lon="4.31134">
        <ele>467</ele>
        <time>2024-10-19T21:40:54Z</time>
      </trkpt>
      <trkpt lat="45.68019" lon="4.31136">
        <ele>467</ele>
        <time>2024-10-19T21:41:00Z</time>
      </trkpt>
      <trkpt lat="45.68011" lon="4.31134">
        <ele>467</ele>
        <time>2024-10-19T21:41:07Z</time>
      </trkpt>
      <trkpt lat="45.68007" lon="4.31139">
        <ele>467</ele>
        <time>2024-10-19T21:41:11Z</time>
      </trkpt>
      <trkpt lat="45.68005" lon="4.31151">
        <ele>467</ele>
        <time>2024-10-19T21:41:18Z</time>
      </trkpt>
      <trkpt lat="45.67999" lon="4.31209">
        <ele>466</ele>
        <time>2024-10-19T21:41:51Z</time>
      </trkpt>
      <trkpt lat="45.67997" lon="4.31237">
        <ele>466</ele>
        <time>2024-10-19T21:42:07Z</time>
      </trkpt>
      <trkpt lat="45.68" lon="4.31276">
        <ele>466</ele>
        <time>2024-10-19T21:42:28Z</time>
      </trkpt>
      <trkpt lat="45.67993" lon="4.31348">
        <ele>464</ele>
        <time>2024-10-19T21:43:09Z</time>
      </trkpt>
      <trkpt lat="45.67989" lon="4.31362">
        <ele>463</ele>
        <time>2024-10-19T21:43:18Z</time>
      </trkpt>
      <trkpt lat="45.67959" lon="4.31413">
        <ele>458</ele>
        <time>2024-10-19T21:43:55Z</time>
      </trkpt>
      <trkpt lat="45.67955" lon="4.31426">
        <ele>456</ele>
        <time>2024-10-19T21:44:03Z</time>
      </trkpt>
      <trkpt lat="45.67953" lon="4.31436">
        <ele>456</ele>
        <time>2024-10-19T21:44:09Z</time>
      </trkpt>
      <trkpt lat="45.67956" lon="4.31455">
        <ele>456</ele>
        <time>2024-10-19T21:44:20Z</time>
      </trkpt>
      <trkpt lat="45.67967" lon="4.31502">
        <ele>457</ele>
        <time>2024-10-19T21:44:47Z</time>
      </trkpt>
      <trkpt lat="45.67965" lon="4.31551">
        <ele>454</ele>
        <time>2024-10-19T21:45:15Z</time>
      </trkpt>
      <trkpt lat="45.67967" lon="4.31556">
        <ele>455</ele>
        <time>2024-10-19T21:45:18Z</time>
      </trkpt>
      <trkpt lat="45.67974" lon="4.31563">
        <ele>456</ele>
        <time>2024-10-19T21:45:25Z</time>
      </trkpt>
      <trkpt lat="45.67991" lon="4.31572">
        <ele>459</ele>
        <time>2024-10-19T21:45:39Z</time>
      </trkpt>
      <trkpt lat="45.67995" lon="4.31579">
        <ele>459</ele>
        <time>2024-10-19T21:45:44Z</time>
      </trkpt>
      <trkpt lat="45.68003" lon="4.31602">
        <ele>462</ele>
        <time>2024-10-19T21:45:59Z</time>
      </trkpt>
      <trkpt lat="45.68006" lon="4.31626">
        <ele>463</ele>
        <time>2024-10-19T21:46:12Z</time>
      </trkpt>
      <trkpt lat="45.68005" lon="4.31637">
        <ele>464</ele>
        <time>2024-10-19T21:46:19Z</time>
      </trkpt>
      <trkpt lat="45.68" lon="4.31648">
        <ele>464</ele>
        <time>2024-10-19T21:46:26Z</time>
      </trkpt>
      <trkpt lat="45.67997" lon="4.3165">
        <ele>464</ele>
        <time>2024-10-19T21:46:29Z</time>
      </trkpt>
      <trkpt lat="45.67954" lon="4.31654">
        <ele>458</ele>
        <time>2024-10-19T21:47:03Z</time>
      </trkpt>
      <trkpt lat="45.67936" lon="4.3166">
        <ele>456</ele>
        <time>2024-10-19T21:47:18Z</time>
      </trkpt>
      <trkpt lat="45.6792" lon="4.31662">
        <ele>454</ele>
        <time>2024-10-19T21:47:31Z</time>
      </trkpt>
      <trkpt lat="45.67862" lon="4.31665">
        <ele>450</ele>
        <time>2024-10-19T21:48:17Z</time>
      </trkpt>
      <trkpt lat="45.67827" lon="4.31663">
        <ele>447</ele>
        <time>2024-10-19T21:48:45Z</time>
      </trkpt>
      <trkpt lat="45.67779" lon="4.31649">
        <ele>443</ele>
        <time>2024-10-19T21:49:24Z</time>
      </trkpt>
      <trkpt lat="45.67751" lon="4.31643">
        <ele>442</ele>
        <time>2024-10-19T21:49:47Z</time>
      </trkpt>
      <trkpt lat="45.67736" lon="4.31641">
        <ele>440</ele>
        <time>2024-10-19T21:49:59Z</time>
      </trkpt>
      <trkpt lat="45.67715" lon="4.31643">
        <ele>439</ele>
        <time>2024-10-19T21:50:16Z</time>
      </trkpt>
      <trkpt lat="45.67708" lon="4.31653">
        <ele>439</ele>
        <time>2024-10-19T21:50:24Z</time>
      </trkpt>
      <trkpt lat="45.67696" lon="4.31696">
        <ele>439</ele>
        <time>2024-10-19T21:50:50Z</time>
      </trkpt>
      <trkpt lat="45.67688" lon="4.3174">
        <ele>439</ele>
        <time>2024-10-19T21:51:15Z</time>
      </trkpt>
      <trkpt lat="45.67678" lon="4.31824">
        <ele>438</ele>
        <time>2024-10-19T21:52:03Z</time>
      </trkpt>
      <trkpt lat="45.67685" lon="4.31845">
        <ele>439</ele>
        <time>2024-10-19T21:52:16Z</time>
      </trkpt>
      <trkpt lat="45.67703" lon="4.31884">
        <ele>441</ele>
        <time>2024-10-19T21:52:42Z</time>
      </trkpt>
      <trkpt lat="45.67704" lon="4.31895">
        <ele>441</ele>
        <time>2024-10-19T21:52:48Z</time>
      </trkpt>
      <trkpt lat="45.67703" lon="4.31884">
        <ele>441</ele>
        <time>2024-10-19T21:52:55Z</time>
      </trkpt>
      <trkpt lat="45.67716" lon="4.31917">
        <ele>441</ele>
        <time>2024-10-19T21:53:16Z</time>
      </trkpt>
      <trkpt lat="45.67727" lon="4.31933">
        <ele>441</ele>
        <time>2024-10-19T21:53:28Z</time>
      </trkpt>
      <trkpt lat="45.67743" lon="4.31946">
        <ele>441</ele>
        <time>2024-10-19T21:53:43Z</time>
      </trkpt>
      <trkpt lat="45.67766" lon="4.31962">
        <ele>444</ele>
        <time>2024-10-19T21:54:04Z</time>
      </trkpt>
      <trkpt lat="45.67777" lon="4.31975">
        <ele>444</ele>
        <time>2024-10-19T21:54:15Z</time>
      </trkpt>
      <trkpt lat="45.67806" lon="4.32028">
        <ele>444</ele>
        <time>2024-10-19T21:54:53Z</time>
      </trkpt>
      <trkpt lat="45.67827" lon="4.32059">
        <ele>441</ele>
        <time>2024-10-19T21:55:17Z</time>
      </trkpt>
      <trkpt lat="45.67846" lon="4.32078">
        <ele>440</ele>
        <time>2024-10-19T21:55:35Z</time>
      </trkpt>
      <trkpt lat="45.67864" lon="4.3209">
        <ele>441</ele>
        <time>2024-10-19T21:55:51Z</time>
      </trkpt>
      <trkpt lat="45.67887" lon="4.32093">
        <ele>443</ele>
        <time>2024-10-19T21:56:10Z</time>
      </trkpt>
      <trkpt lat="45.67899" lon="4.32097">
        <ele>444</ele>
        <time>2024-10-19T21:56:20Z</time>
      </trkpt>
      <trkpt lat="45.67941" lon="4.32128">
        <ele>446</ele>
        <time>2024-10-19T21:56:57Z</time>
      </trkpt>
      <trkpt lat="45.67895" lon="4.32059">
        <ele>451</ele>
        <time>2024-10-19T21:57:51Z</time>
      </trkpt>
      <trkpt lat="45.67872" lon="4.32012">
        <ele>457</ele>
        <time>2024-10-19T21:58:23Z</time>
      </trkpt>
      <trkpt lat="45.67854" lon="4.3195">
        <ele>469</ele>
        <time>2024-10-19T21:59:00Z</time>
      </trkpt>
      <trkpt lat="45.6782" lon="4.31923">
        <ele>467</ele>
        <time>2024-10-19T21:59:32Z</time>
      </trkpt>
      <trkpt lat="45.6781" lon="4.31905">
        <ele>467</ele>
        <time>2024-10-19T21:59:44Z</time>
      </trkpt>
      <trkpt lat="45.67804" lon="4.31874">
        <ele>469</ele>
        <time>2024-10-19T22:00:02Z</time>
      </trkpt>
      <trkpt lat="45.67813" lon="4.31799">
        <ele>472</ele>
        <time>2024-10-19T22:00:45Z</time>
      </trkpt>
      <trkpt lat="45.67829" lon="4.31779">
        <ele>473</ele>
        <time>2024-10-19T22:01:02Z</time>
      </trkpt>
      <trkpt lat="45.67853" lon="4.31772">
        <ele>474</ele>
        <time>2024-10-19T22:01:22Z</time>
      </trkpt>
      <trkpt lat="45.67889" lon="4.3177">
        <ele>477</ele>
        <time>2024-10-19T22:01:50Z</time>
      </trkpt>
      <trkpt lat="45.67939" lon="4.3178">
        <ele>482</ele>
        <time>2024-10-19T22:02:31Z</time>
      </trkpt>
      <trkpt lat="45.67961" lon="4.3178">
        <ele>483</ele>
        <time>2024-10-19T22:02:48Z</time>
      </trkpt>
      <trkpt lat="45.67983" lon="4.31777">
        <ele>484</ele>
        <time>2024-10-19T22:03:06Z</time>
      </trkpt>
      <trkpt lat="45.68014" lon="4.31766">
        <ele>484</ele>
        <time>2024-10-19T22:03:32Z</time>
      </trkpt>
      <trkpt lat="45.6807" lon="4.3176">
        <ele>488</ele>
        <time>2024-10-19T22:04:17Z</time>
      </trkpt>
      <trkpt lat="45.68113" lon="4.31765">
        <ele>492</ele>
        <time>2024-10-19T22:04:51Z</time>
      </trkpt>
      <trkpt lat="45.68145" lon="4.31791">
        <ele>498</ele>
        <time>2024-10-19T22:05:21Z</time>
      </trkpt>
      <trkpt lat="45.68162" lon="4.318">
        <ele>500</ele>
        <time>2024-10-19T22:05:35Z</time>
      </trkpt>
      <trkpt lat="45.68184" lon="4.31807">
        <ele>501</ele>
        <time>2024-10-19T22:05:53Z</time>
      </trkpt>
      <trkpt lat="45.68198" lon="4.31808">
        <ele>501</ele>
        <time>2024-10-19T22:06:04Z</time>
      </trkpt>
      <trkpt lat="45.68248" lon="4.31796">
        <ele>501</ele>
        <time>2024-10-19T22:06:45Z</time>
      </trkpt>
      <trkpt lat="45.68244" lon="4.31783">
        <ele>500</ele>
        <time>2024-10-19T22:06:53Z</time>
      </trkpt>
      <trkpt lat="45.68248" lon="4.31796">
        <ele>501</ele>
        <time>2024-10-19T22:07:01Z</time>
      </trkpt>
      <trkpt lat="45.68246" lon="4.31808">
        <ele>502</ele>
        <time>2024-10-19T22:07:08Z</time>
      </trkpt>
      <trkpt lat="45.68248" lon="4.31819">
        <ele>503</ele>
        <time>2024-10-19T22:07:14Z</time>
      </trkpt>
      <trkpt lat="45.68256" lon="4.3184">
        <ele>505</ele>
        <time>2024-10-19T22:07:28Z</time>
      </trkpt>
      <trkpt lat="45.68299" lon="4.31883">
        <ele>508</ele>
        <time>2024-10-19T22:08:10Z</time>
      </trkpt>
      <trkpt lat="45.68325" lon="4.31944">
        <ele>508</ele>
        <time>2024-10-19T22:08:50Z</time>
      </trkpt>
      <trkpt lat="45.68332" lon="4.31957">
        <ele>508</ele>
        <time>2024-10-19T22:08:59Z</time>
      </trkpt>
      <trkpt lat="45.68344" lon="4.31969">
        <ele>507</ele>
        <time>2024-10-19T22:09:10Z</time>
      </trkpt>
      <trkpt lat="45.68354" lon="4.31975">
        <ele>507</ele>
        <time>2024-10-19T22:09:19Z</time>
      </trkpt>
      <trkpt lat="45.68431" lon="4.31991">
        <ele>503</ele>
        <time>2024-10-19T22:10:21Z</time>
      </trkpt>
      <trkpt lat="45.68444" lon="4.3199">
        <ele>501</ele>
        <time>2024-10-19T22:10:32Z</time>
      </trkpt>
      <trkpt lat="45.68477" lon="4.31981">
        <ele>499</ele>
        <time>2024-10-19T22:10:59Z</time>
      </trkpt>
      <trkpt lat="45.68525" lon="4.31865">
        <ele>513</ele>
        <time>2024-10-19T22:12:14Z</time>
      </trkpt>
      <trkpt lat="45.68543" lon="4.31843">
        <ele>515</ele>
        <time>2024-10-19T22:12:33Z</time>
      </trkpt>
      <trkpt lat="45.68567" lon="4.31821">
        <ele>514</ele>
        <time>2024-10-19T22:12:56Z</time>
      </trkpt>
      <trkpt lat="45.68584" lon="4.31798">
        <ele>514</ele>
        <time>2024-10-19T22:13:15Z</time>
      </trkpt>
      <trkpt lat="45.68588" lon="4.31796">
        <ele>514</ele>
        <time>2024-10-19T22:13:18Z</time>
      </trkpt>
      <trkpt lat="45.68598" lon="4.31808">
        <ele>513</ele>
        <time>2024-10-19T22:13:29Z</time>
      </trkpt>
      <trkpt lat="45.68602" lon="4.31811">
        <ele>513</ele>
        <time>2024-10-19T22:13:32Z</time>
      </trkpt>
      <trkpt lat="45.68606" lon="4.3181">
        <ele>513</ele>
        <time>2024-10-19T22:13:35Z</time>
      </trkpt>
      <trkpt lat="45.68639" lon="4.31742">
        <ele>514</ele>
        <time>2024-10-19T22:14:22Z</time>
      </trkpt>
      <trkpt lat="45.68642" lon="4.3174">
        <ele>514</ele>
        <time>2024-10-19T22:14:24Z</time>
      </trkpt>
      <trkpt lat="45.68689" lon="4.31771">
        <ele>512</ele>
        <time>2024-10-19T22:15:06Z</time>
      </trkpt>
      <trkpt lat="45.68696" lon="4.31779">
        <ele>512</ele>
        <time>2024-10-19T22:15:13Z</time>
      </trkpt>
      <trkpt lat="45.68696" lon="4.31795">
        <ele>512</ele>
        <time>2024-10-19T22:15:22Z</time>
      </trkpt>
      <trkpt lat="45.68763" lon="4.31868">
        <ele>513</ele>
        <time>2024-10-19T22:16:29Z</time>
      </trkpt>
      <trkpt lat="45.68767" lon="4.31869">
        <ele>513</ele>
        <time>2024-10-19T22:16:33Z</time>
      </trkpt>
      <trkpt lat="45.68773" lon="4.31867">
        <ele>513</ele>
        <time>2024-10-19T22:16:38Z</time>
      </trkpt>
      <trkpt lat="45.68799" lon="4.31835">
        <ele>513</ele>
        <time>2024-10-19T22:17:05Z</time>
      </trkpt>
      <trkpt lat="45.6883" lon="4.31802">
        <ele>510</ele>
        <time>2024-10-19T22:17:36Z</time>
      </trkpt>
      <trkpt lat="45.68873" lon="4.31778">
        <ele>507</ele>
        <time>2024-10-19T22:18:13Z</time>
      </trkpt>
      <trkpt lat="45.68904" lon="4.31753">
        <ele>505</ele>
        <time>2024-10-19T22:18:41Z</time>
      </trkpt>
      <trkpt lat="45.68938" lon="4.31732">
        <ele>504</ele>
        <time>2024-10-19T22:19:11Z</time>
      </trkpt>
      <trkpt lat="45.68964" lon="4.31737">
        <ele>504</ele>
        <time>2024-10-19T22:19:32Z</time>
      </trkpt>
      <trkpt lat="45.68963" lon="4.31733">
        <ele>504</ele>
        <time>2024-10-19T22:19:34Z</time>
      </trkpt>
      <trkpt lat="45.68957" lon="4.31723">
        <ele>504</ele>
        <time>2024-10-19T22:19:42Z</time>
      </trkpt>
      <trkpt lat="45.68963" lon="4.31733">
        <ele>504</ele>
        <time>2024-10-19T22:19:49Z</time>
      </trkpt>
      <trkpt lat="45.68976" lon="4.31719">
        <ele>504</ele>
        <time>2024-10-19T22:20:02Z</time>
      </trkpt>
      <trkpt lat="45.68995" lon="4.31703">
        <ele>503</ele>
        <time>2024-10-19T22:20:20Z</time>
      </trkpt>
      <trkpt lat="45.6902" lon="4.31691">
        <ele>503</ele>
        <time>2024-10-19T22:20:41Z</time>
      </trkpt>
      <trkpt lat="45.69057" lon="4.31682">
        <ele>501</ele>
        <time>2024-10-19T22:21:11Z</time>
      </trkpt>
      <trkpt lat="45.69062" lon="4.31677">
        <ele>501</ele>
        <time>2024-10-19T22:21:16Z</time>
      </trkpt>
      <trkpt lat="45.69062" lon="4.31671">
        <ele>501</ele>
        <time>2024-10-19T22:21:19Z</time>
      </trkpt>
      <trkpt lat="45.69059" lon="4.31657">
        <ele>501</ele>
        <time>2024-10-19T22:21:27Z</time>
      </trkpt>
      <trkpt lat="45.69065" lon="4.31649">
        <ele>502</ele>
        <time>2024-10-19T22:21:34Z</time>
      </trkpt>
      <trkpt lat="45.69176" lon="4.31557">
        <ele>496</ele>
        <time>2024-10-19T22:23:17Z</time>
      </trkpt>
      <trkpt lat="45.69178" lon="4.31552">
        <ele>496</ele>
        <time>2024-10-19T22:23:20Z</time>
      </trkpt>
      <trkpt lat="45.69173" lon="4.31522">
        <ele>499</ele>
        <time>2024-10-19T22:23:37Z</time>
      </trkpt>
      <trkpt lat="45.69154" lon="4.31458">
        <ele>506</ele>
        <time>2024-10-19T22:24:16Z</time>
      </trkpt>
      <trkpt lat="45.69095" lon="4.31281">
        <ele>529</ele>
        <time>2024-10-19T22:26:06Z</time>
      </trkpt>
      <trkpt lat="45.69091" lon="4.31264">
        <ele>529</ele>
        <time>2024-10-19T22:26:16Z</time>
      </trkpt>
      <trkpt lat="45.69092" lon="4.31249">
        <ele>529</ele>
        <time>2024-10-19T22:26:24Z</time>
      </trkpt>
      <trkpt lat="45.69095" lon="4.31234">
        <ele>528</ele>
        <time>2024-10-19T22:26:33Z</time>
      </trkpt>
      <trkpt lat="45.69111" lon="4.31186">
        <ele>524</ele>
        <time>2024-10-19T22:27:03Z</time>
      </trkpt>
      <trkpt lat="45.69135" lon="4.31128">
        <ele>519</ele>
        <time>2024-10-19T22:27:40Z</time>
      </trkpt>
      <trkpt lat="45.69144" lon="4.31102">
        <ele>517</ele>
        <time>2024-10-19T22:27:57Z</time>
      </trkpt>
      <trkpt lat="45.6918" lon="4.31026">
        <ele>513</ele>
        <time>2024-10-19T22:28:48Z</time>
      </trkpt>
      <trkpt lat="45.69202" lon="4.30962">
        <ele>506</ele>
        <time>2024-10-19T22:29:28Z</time>
      </trkpt>
      <trkpt lat="45.69207" lon="4.30935">
        <ele>503</ele>
        <time>2024-10-19T22:29:43Z</time>
      </trkpt>
      <trkpt lat="45.69212" lon="4.30884">
        <ele>497</ele>
        <time>2024-10-19T22:30:12Z</time>
      </trkpt>
      <trkpt lat="45.69217" lon="4.3089">
        <ele>498</ele>
        <time>2024-10-19T22:30:17Z</time>
      </trkpt>
      <trkpt lat="45.69263" lon="4.30937">
        <ele>501</ele>
        <time>2024-10-19T22:31:03Z</time>
      </trkpt>
      <trkpt lat="45.69282" lon="4.30951">
        <ele>500</ele>
        <time>2024-10-19T22:31:20Z</time>
      </trkpt>
      <trkpt lat="45.69307" lon="4.30965">
        <ele>499</ele>
        <time>2024-10-19T22:31:41Z</time>
      </trkpt>
      <trkpt lat="45.69323" lon="4.30981">
        <ele>499</ele>
        <time>2024-10-19T22:31:57Z</time>
      </trkpt>
      <trkpt lat="45.69353" lon="4.31022">
        <ele>497</ele>
        <time>2024-10-19T22:32:30Z</time>
      </trkpt>
      <trkpt lat="45.69362" lon="4.31047">
        <ele>495</ele>
        <time>2024-10-19T22:32:46Z</time>
      </trkpt>
      <trkpt lat="45.69365" lon="4.31075">
        <ele>494</ele>
        <time>2024-10-19T22:33:02Z</time>
      </trkpt>
      <trkpt lat="45.69368" lon="4.31126">
        <ele>492</ele>
        <time>2024-10-19T22:33:30Z</time>
      </trkpt>
      <trkpt lat="45.69373" lon="4.31144">
        <ele>490</ele>
        <time>2024-10-19T22:33:41Z</time>
      </trkpt>
      <trkpt lat="45.69381" lon="4.31153">
        <ele>488</ele>
        <time>2024-10-19T22:33:49Z</time>
      </trkpt>
      <trkpt lat="45.69399" lon="4.31161">
        <ele>483</ele>
        <time>2024-10-19T22:34:04Z</time>
      </trkpt>
      <trkpt lat="45.69403" lon="4.31172">
        <ele>482</ele>
        <time>2024-10-19T22:34:11Z</time>
      </trkpt>
      <trkpt lat="45.69404" lon="4.31192">
        <ele>480</ele>
        <time>2024-10-19T22:34:23Z</time>
      </trkpt>
      <trkpt lat="45.69391" lon="4.31227">
        <ele>480</ele>
        <time>2024-10-19T22:34:45Z</time>
      </trkpt>
      <trkpt lat="45.6937" lon="4.31271">
        <ele>482</ele>
        <time>2024-10-19T22:35:15Z</time>
      </trkpt>
      <trkpt lat="45.69365" lon="4.31289">
        <ele>482</ele>
        <time>2024-10-19T22:35:25Z</time>
      </trkpt>
      <trkpt lat="45.69367" lon="4.31295">
        <ele>481</ele>
        <time>2024-10-19T22:35:29Z</time>
      </trkpt>
      <trkpt lat="45.69453" lon="4.31363">
        <ele>476</ele>
        <time>2024-10-19T22:36:48Z</time>
      </trkpt>
      <trkpt lat="45.6949" lon="4.31395">
        <ele>478</ele>
        <time>2024-10-19T22:37:22Z</time>
      </trkpt>
      <trkpt lat="45.69544" lon="4.31481">
        <ele>483</ele>
        <time>2024-10-19T22:38:27Z</time>
      </trkpt>
      <trkpt lat="45.69552" lon="4.31495">
        <ele>483</ele>
        <time>2024-10-19T22:38:37Z</time>
      </trkpt>
      <trkpt lat="45.69558" lon="4.315">
        <ele>483</ele>
        <time>2024-10-19T22:38:43Z</time>
      </trkpt>
      <trkpt lat="45.69602" lon="4.31514">
        <ele>482</ele>
        <time>2024-10-19T22:39:19Z</time>
      </trkpt>
      <trkpt lat="45.69603" lon="4.31515">
        <ele>482</ele>
        <time>2024-10-19T22:39:20Z</time>
      </trkpt>
      <trkpt lat="45.69633" lon="4.31554">
        <ele>483</ele>
        <time>2024-10-19T22:39:52Z</time>
      </trkpt>
      <trkpt lat="45.69646" lon="4.31562">
        <ele>483</ele>
        <time>2024-10-19T22:40:04Z</time>
      </trkpt>
      <trkpt lat="45.69669" lon="4.31569">
        <ele>483</ele>
        <time>2024-10-19T22:40:22Z</time>
      </trkpt>
      <trkpt lat="45.69701" lon="4.31586">
        <ele>483</ele>
        <time>2024-10-19T22:40:50Z</time>
      </trkpt>
      <trkpt lat="45.6972" lon="4.31593">
        <ele>482</ele>
        <time>2024-10-19T22:41:05Z</time>
      </trkpt>
      <trkpt lat="45.69763" lon="4.316">
        <ele>480</ele>
        <time>2024-10-19T22:41:40Z</time>
      </trkpt>
      <trkpt lat="45.6981" lon="4.31613">
        <ele>477</ele>
        <time>2024-10-19T22:42:18Z</time>
      </trkpt>
      <trkpt lat="45.69837" lon="4.31614">
        <ele>475</ele>
        <time>2024-10-19T22:42:40Z</time>
      </trkpt>
      <trkpt lat="45.69855" lon="4.31616">
        <ele>472</ele>
        <time>2024-10-19T22:42:54Z</time>
      </trkpt>
      <trkpt lat="45.69935" lon="4.31638">
        <ele>465</ele>
        <time>2024-10-19T22:44:00Z</time>
      </trkpt>
      <trkpt lat="45.69965" lon="4.31652">
        <ele>465</ele>
        <time>2024-10-19T22:44:25Z</time>
      </trkpt>
      <trkpt lat="45.69967" lon="4.31654">
        <ele>465</ele>
        <time>2024-10-19T22:44:27Z</time>
      </trkpt>
      <trkpt lat="45.70029" lon="4.31655">
        <ele>461</ele>
        <time>2024-10-19T22:45:17Z</time>
      </trkpt>
      <trkpt lat="45.70225" lon="4.31651">
        <ele>444</ele>
        <time>2024-10-19T22:47:54Z</time>
      </trkpt>
      <trkpt lat="45.70245" lon="4.31728">
        <ele>444</ele>
        <time>2024-10-19T22:48:39Z</time>
      </trkpt>
      <trkpt lat="45.7029" lon="4.31754">
        <ele>431</ele>
        <time>2024-10-19T22:49:18Z</time>
      </trkpt>
      <trkpt lat="45.703" lon="4.31932">
        <ele>432</ele>
        <time>2024-10-19T22:50:58Z</time>
      </trkpt>
      <trkpt lat="45.70314" lon="4.31975">
        <ele>432</ele>
        <time>2024-10-19T22:51:25Z</time>
      </trkpt>
      <trkpt lat="45.70356" lon="4.31989">
        <ele>429</ele>
        <time>2024-10-19T22:51:59Z</time>
      </trkpt>
      <trkpt lat="45.70356" lon="4.32117">
        <ele>432</ele>
        <time>2024-10-19T22:53:11Z</time>
      </trkpt>
      <trkpt lat="45.70449" lon="4.32368">
        <ele>445</ele>
        <time>2024-10-19T22:55:50Z</time>
      </trkpt>
      <trkpt lat="45.70482" lon="4.32416">
        <ele>443</ele>
        <time>2024-10-19T22:56:27Z</time>
      </trkpt>
      <trkpt lat="45.70485" lon="4.32501">
        <ele>447</ele>
        <time>2024-10-19T22:57:15Z</time>
      </trkpt>
      <trkpt lat="45.70479" lon="4.32552">
        <ele>450</ele>
        <time>2024-10-19T22:57:44Z</time>
      </trkpt>
      <trkpt lat="45.70456" lon="4.32718">
        <ele>453</ele>
        <time>2024-10-19T22:59:18Z</time>
      </trkpt>
      <trkpt lat="45.7048" lon="4.32871">
        <ele>452</ele>
        <time>2024-10-19T23:00:46Z</time>
      </trkpt>
      <trkpt lat="45.70524" lon="4.32988">
        <ele>455</ele>
        <time>2024-10-19T23:02:00Z</time>
      </trkpt>
      <trkpt lat="45.70577" lon="4.33029">
        <ele>457</ele>
        <time>2024-10-19T23:02:49Z</time>
      </trkpt>
      <trkpt lat="45.70599" lon="4.33058">
        <ele>458</ele>
        <time>2024-10-19T23:03:13Z</time>
      </trkpt>
      <trkpt lat="45.70605" lon="4.33068">
        <ele>458</ele>
        <time>2024-10-19T23:03:20Z</time>
      </trkpt>
      <trkpt lat="45.70631" lon="4.33082">
        <ele>458</ele>
        <time>2024-10-19T23:03:42Z</time>
      </trkpt>
      <trkpt lat="45.70631" lon="4.33082">
        <ele>458</ele>
        <time>2024-10-19T23:03:42Z</time>
      </trkpt>
      <trkpt lat="45.70636" lon="4.33084">
        <ele>457</ele>
        <time>2024-10-19T23:03:46Z</time>
      </trkpt>
      <trkpt lat="45.70643" lon="4.33094">
        <ele>457</ele>
        <time>2024-10-19T23:03:54Z</time>
      </trkpt>
      <trkpt lat="45.70615" lon="4.33168">
        <ele>458</ele>
        <time>2024-10-19T23:04:41Z</time>
      </trkpt>
      <trkpt lat="45.70604" lon="4.33237">
        <ele>460</ele>
        <time>2024-10-19T23:05:21Z</time>
      </trkpt>
      <trkpt lat="45.70571" lon="4.33297">
        <ele>466</ele>
        <time>2024-10-19T23:06:04Z</time>
      </trkpt>
      <trkpt lat="45.70556" lon="4.33381">
        <ele>473</ele>
        <time>2024-10-19T23:06:52Z</time>
      </trkpt>
      <trkpt lat="45.70565" lon="4.33527">
        <ele>485</ele>
        <time>2024-10-19T23:08:14Z</time>
      </trkpt>
      <trkpt lat="45.70588" lon="4.33653">
        <ele>496</ele>
        <time>2024-10-19T23:09:27Z</time>
      </trkpt>
      <trkpt lat="45.70571" lon="4.33694">
        <ele>495</ele>
        <time>2024-10-19T23:09:54Z</time>
      </trkpt>
      <trkpt lat="45.70543" lon="4.33685">
        <ele>492</ele>
        <time>2024-10-19T23:10:17Z</time>
      </trkpt>
      <trkpt lat="45.70489" lon="4.33844">
        <ele>493</ele>
        <time>2024-10-19T23:11:55Z</time>
      </trkpt>
      <trkpt lat="45.70559" lon="4.33859">
        <ele>499</ele>
        <time>2024-10-19T23:12:52Z</time>
      </trkpt>
      <trkpt lat="45.70571" lon="4.339">
        <ele>502</ele>
        <time>2024-10-19T23:13:17Z</time>
      </trkpt>
      <trkpt lat="45.70594" lon="4.33939">
        <ele>505</ele>
        <time>2024-10-19T23:13:45Z</time>
      </trkpt>
      <trkpt lat="45.70589" lon="4.34012">
        <ele>505</ele>
        <time>2024-10-19T23:14:27Z</time>
      </trkpt>
      <trkpt lat="45.70592" lon="4.34027">
        <ele>506</ele>
        <time>2024-10-19T23:14:35Z</time>
      </trkpt>
      <trkpt lat="45.70614" lon="4.3406">
        <ele>508</ele>
        <time>2024-10-19T23:15:01Z</time>
      </trkpt>
      <trkpt lat="45.7063" lon="4.34101">
        <ele>510</ele>
        <time>2024-10-19T23:15:27Z</time>
      </trkpt>
      <trkpt lat="45.7064" lon="4.34119">
        <ele>511</ele>
        <time>2024-10-19T23:15:40Z</time>
      </trkpt>
      <trkpt lat="45.70649" lon="4.34143">
        <ele>512</ele>
        <time>2024-10-19T23:15:55Z</time>
      </trkpt>
      <trkpt lat="45.70655" lon="4.34164">
        <ele>513</ele>
        <time>2024-10-19T23:16:08Z</time>
      </trkpt>
      <trkpt lat="45.70661" lon="4.34217">
        <ele>516</ele>
        <time>2024-10-19T23:16:38Z</time>
      </trkpt>
      <trkpt lat="45.70657" lon="4.34238">
        <ele>517</ele>
        <time>2024-10-19T23:16:50Z</time>
      </trkpt>
      <trkpt lat="45.70652" lon="4.34252">
        <ele>517</ele>
        <time>2024-10-19T23:16:59Z</time>
      </trkpt>
      <trkpt lat="45.70618" lon="4.34312">
        <ele>519</ele>
        <time>2024-10-19T23:17:42Z</time>
      </trkpt>
      <trkpt lat="45.70597" lon="4.34322">
        <ele>519</ele>
        <time>2024-10-19T23:18:00Z</time>
      </trkpt>
      <trkpt lat="45.70587" lon="4.3433">
        <ele>520</ele>
        <time>2024-10-19T23:18:09Z</time>
      </trkpt>
      <trkpt lat="45.7058" lon="4.34341">
        <ele>520</ele>
        <time>2024-10-19T23:18:17Z</time>
      </trkpt>
      <trkpt lat="45.70572" lon="4.3437">
        <ele>520</ele>
        <time>2024-10-19T23:18:35Z</time>
      </trkpt>
      <trkpt lat="45.70568" lon="4.3439">
        <ele>521</ele>
        <time>2024-10-19T23:18:46Z</time>
      </trkpt>
      <trkpt lat="45.70569" lon="4.34458">
        <ele>523</ele>
        <time>2024-10-19T23:19:24Z</time>
      </trkpt>
      <trkpt lat="45.70571" lon="4.34524">
        <ele>524</ele>
        <time>2024-10-19T23:20:01Z</time>
      </trkpt>
      <trkpt lat="45.70575" lon="4.34552">
        <ele>525</ele>
        <time>2024-10-19T23:20:17Z</time>
      </trkpt>
      <trkpt lat="45.7059" lon="4.34606">
        <ele>528</ele>
        <time>2024-10-19T23:20:50Z</time>
      </trkpt>
      <trkpt lat="45.7059" lon="4.34616">
        <ele>529</ele>
        <time>2024-10-19T23:20:55Z</time>
      </trkpt>
      <trkpt lat="45.70584" lon="4.34636">
        <ele>530</ele>
        <time>2024-10-19T23:21:07Z</time>
      </trkpt>
      <trkpt lat="45.7058" lon="4.34645">
        <ele>530</ele>
        <time>2024-10-19T23:21:13Z</time>
      </trkpt>
      <trkpt lat="45.70549" lon="4.34667">
        <ele>531</ele>
        <time>2024-10-19T23:21:41Z</time>
      </trkpt>
      <trkpt lat="45.70539" lon="4.34679">
        <ele>532</ele>
        <time>2024-10-19T23:21:52Z</time>
      </trkpt>
      <trkpt lat="45.7053" lon="4.347">
        <ele>534</ele>
        <time>2024-10-19T23:22:05Z</time>
      </trkpt>
      <trkpt lat="45.7053" lon="4.34705">
        <ele>534</ele>
        <time>2024-10-19T23:22:08Z</time>
      </trkpt>
      <trkpt lat="45.70485" lon="4.34722">
        <ele>535</ele>
        <time>2024-10-19T23:22:45Z</time>
      </trkpt>
      <trkpt lat="45.70472" lon="4.34738">
        <ele>535</ele>
        <time>2024-10-19T23:22:59Z</time>
      </trkpt>
      <trkpt lat="45.70468" lon="4.34749">
        <ele>536</ele>
        <time>2024-10-19T23:23:06Z</time>
      </trkpt>
      <trkpt lat="45.70467" lon="4.34761">
        <ele>537</ele>
        <time>2024-10-19T23:23:13Z</time>
      </trkpt>
      <trkpt lat="45.70474" lon="4.34786">
        <ele>539</ele>
        <time>2024-10-19T23:23:28Z</time>
      </trkpt>
      <trkpt lat="45.70495" lon="4.34831">
        <ele>544</ele>
        <time>2024-10-19T23:23:58Z</time>
      </trkpt>
      <trkpt lat="45.70503" lon="4.34856">
        <ele>548</ele>
        <time>2024-10-19T23:24:14Z</time>
      </trkpt>
      <trkpt lat="45.70506" lon="4.34874">
        <ele>550</ele>
        <time>2024-10-19T23:24:24Z</time>
      </trkpt>
      <trkpt lat="45.70515" lon="4.35015">
        <ele>561</ele>
        <time>2024-10-19T23:25:43Z</time>
      </trkpt>
      <trkpt lat="45.70532" lon="4.35102">
        <ele>561</ele>
        <time>2024-10-19T23:26:34Z</time>
      </trkpt>
      <trkpt lat="45.70532" lon="4.35152">
        <ele>560</ele>
        <time>2024-10-19T23:27:02Z</time>
      </trkpt>
      <trkpt lat="45.70512" lon="4.35203">
        <ele>561</ele>
        <time>2024-10-19T23:27:34Z</time>
      </trkpt>
      <trkpt lat="45.70509" lon="4.35242">
        <ele>562</ele>
        <time>2024-10-19T23:27:56Z</time>
      </trkpt>
      <trkpt lat="45.70502" lon="4.35292">
        <ele>564</ele>
        <time>2024-10-19T23:28:25Z</time>
      </trkpt>
      <trkpt lat="45.70496" lon="4.35362">
        <ele>568</ele>
        <time>2024-10-19T23:29:04Z</time>
      </trkpt>
      <trkpt lat="45.70501" lon="4.35406">
        <ele>573</ele>
        <time>2024-10-19T23:29:29Z</time>
      </trkpt>
      <trkpt lat="45.7051" lon="4.35449">
        <ele>576</ele>
        <time>2024-10-19T23:29:54Z</time>
      </trkpt>
      <trkpt lat="45.70533" lon="4.35533">
        <ele>580</ele>
        <time>2024-10-19T23:30:45Z</time>
      </trkpt>
      <trkpt lat="45.70556" lon="4.35587">
        <ele>582</ele>
        <time>2024-10-19T23:31:20Z</time>
      </trkpt>
      <trkpt lat="45.70563" lon="4.35599">
        <ele>582</ele>
        <time>2024-10-19T23:31:29Z</time>
      </trkpt>
      <trkpt lat="45.7057" lon="4.35618">
        <ele>582</ele>
        <time>2024-10-19T23:31:41Z</time>
      </trkpt>
      <trkpt lat="45.7057" lon="4.35632">
        <ele>581</ele>
        <time>2024-10-19T23:31:49Z</time>
      </trkpt>
      <trkpt lat="45.70568" lon="4.35645">
        <ele>581</ele>
        <time>2024-10-19T23:31:56Z</time>
      </trkpt>
      <trkpt lat="45.70559" lon="4.35661">
        <ele>580</ele>
        <time>2024-10-19T23:32:07Z</time>
      </trkpt>
      <trkpt lat="45.70517" lon="4.35715">
        <ele>578</ele>
        <time>2024-10-19T23:32:53Z</time>
      </trkpt>
      <trkpt lat="45.70508" lon="4.35731">
        <ele>578</ele>
        <time>2024-10-19T23:33:04Z</time>
      </trkpt>
      <trkpt lat="45.70472" lon="4.35775">
        <ele>578</ele>
        <time>2024-10-19T23:33:42Z</time>
      </trkpt>
      <trkpt lat="45.70401" lon="4.35868">
        <ele>581</ele>
        <time>2024-10-19T23:34:59Z</time>
      </trkpt>
      <trkpt lat="45.70399" lon="4.35869">
        <ele>581</ele>
        <time>2024-10-19T23:35:01Z</time>
      </trkpt>
      <trkpt lat="45.70394" lon="4.35867">
        <ele>581</ele>
        <time>2024-10-19T23:35:05Z</time>
      </trkpt>
      <trkpt lat="45.70376" lon="4.35859">
        <ele>581</ele>
        <time>2024-10-19T23:35:20Z</time>
      </trkpt>
      <trkpt lat="45.70352" lon="4.35845">
        <ele>580</ele>
        <time>2024-10-19T23:35:41Z</time>
      </trkpt>
      <trkpt lat="45.70301" lon="4.35825">
        <ele>581</ele>
        <time>2024-10-19T23:36:23Z</time>
      </trkpt>
      <trkpt lat="45.7026" lon="4.35825">
        <ele>582</ele>
        <time>2024-10-19T23:36:56Z</time>
      </trkpt>
      <trkpt lat="45.70236" lon="4.35827">
        <ele>582</ele>
        <time>2024-10-19T23:37:15Z</time>
      </trkpt>
      <trkpt lat="45.70204" lon="4.35835">
        <ele>581</ele>
        <time>2024-10-19T23:37:41Z</time>
      </trkpt>
      <trkpt lat="45.70186" lon="4.35837">
        <ele>581</ele>
        <time>2024-10-19T23:37:56Z</time>
      </trkpt>
      <trkpt lat="45.7008" lon="4.35844">
        <ele>576</ele>
        <time>2024-10-19T23:39:21Z</time>
      </trkpt>
      <trkpt lat="45.69997" lon="4.35847">
        <ele>573</ele>
        <time>2024-10-19T23:40:27Z</time>
      </trkpt>
      <trkpt lat="45.69935" lon="4.3584">
        <ele>571</ele>
        <time>2024-10-19T23:41:17Z</time>
      </trkpt>
      <trkpt lat="45.69773" lon="4.35853">
        <ele>570</ele>
        <time>2024-10-19T23:43:27Z</time>
      </trkpt>
      <trkpt lat="45.69608" lon="4.35745">
        <ele>558</ele>
        <time>2024-10-19T23:45:52Z</time>
      </trkpt>
      <trkpt lat="45.69545" lon="4.35672">
        <ele>547</ele>
        <time>2024-10-19T23:46:57Z</time>
      </trkpt>
      <trkpt lat="45.69542" lon="4.35629">
        <ele>544</ele>
        <time>2024-10-19T23:47:21Z</time>
      </trkpt>
      <trkpt lat="45.69401" lon="4.35548">
        <ele>529</ele>
        <time>2024-10-19T23:49:23Z</time>
      </trkpt>
      <trkpt lat="45.69383" lon="4.35501">
        <ele>524</ele>
        <time>2024-10-19T23:49:53Z</time>
      </trkpt>
      <trkpt lat="45.6935" lon="4.35496">
        <ele>520</ele>
        <time>2024-10-19T23:50:19Z</time>
      </trkpt>
      <trkpt lat="45.6932" lon="4.35466">
        <ele>513</ele>
        <time>2024-10-19T23:50:49Z</time>
      </trkpt>
      <trkpt lat="45.69295" lon="4.35483">
        <ele>509</ele>
        <time>2024-10-19T23:51:11Z</time>
      </trkpt>
      <trkpt lat="45.69286" lon="4.35494">
        <ele>508</ele>
        <time>2024-10-19T23:51:20Z</time>
      </trkpt>
      <trkpt lat="45.69279" lon="4.35513">
        <ele>507</ele>
        <time>2024-10-19T23:51:32Z</time>
      </trkpt>
      <trkpt lat="45.69276" lon="4.35541">
        <ele>506</ele>
        <time>2024-10-19T23:51:48Z</time>
      </trkpt>
      <trkpt lat="45.69271" lon="4.35557">
        <ele>505</ele>
        <time>2024-10-19T23:51:58Z</time>
      </trkpt>
      <trkpt lat="45.69263" lon="4.35606">
        <ele>502</ele>
        <time>2024-10-19T23:52:26Z</time>
      </trkpt>
      <trkpt lat="45.69259" lon="4.35616">
        <ele>500</ele>
        <time>2024-10-19T23:52:33Z</time>
      </trkpt>
      <trkpt lat="45.69255" lon="4.35634">
        <ele>499</ele>
        <time>2024-10-19T23:52:43Z</time>
      </trkpt>
      <trkpt lat="45.69246" lon="4.35639">
        <ele>498</ele>
        <time>2024-10-19T23:52:51Z</time>
      </trkpt>
      <trkpt lat="45.69229" lon="4.35655">
        <ele>498</ele>
        <time>2024-10-19T23:53:07Z</time>
      </trkpt>
      <trkpt lat="45.69223" lon="4.35657">
        <ele>498</ele>
        <time>2024-10-19T23:53:12Z</time>
      </trkpt>
      <trkpt lat="45.69206" lon="4.35659">
        <ele>498</ele>
        <time>2024-10-19T23:53:26Z</time>
      </trkpt>
      <trkpt lat="45.69185" lon="4.35651">
        <ele>498</ele>
        <time>2024-10-19T23:53:43Z</time>
      </trkpt>
      <trkpt lat="45.69168" lon="4.35638">
        <ele>498</ele>
        <time>2024-10-19T23:53:59Z</time>
      </trkpt>
      <trkpt lat="45.69131" lon="4.35614">
        <ele>504</ele>
        <time>2024-10-19T23:54:31Z</time>
      </trkpt>
      <trkpt lat="45.6904" lon="4.35621">
        <ele>519</ele>
        <time>2024-10-19T23:55:44Z</time>
      </trkpt>
      <trkpt lat="45.68971" lon="4.35649">
        <ele>531</ele>
        <time>2024-10-19T23:56:41Z</time>
      </trkpt>
      <trkpt lat="45.68935" lon="4.35678">
        <ele>538</ele>
        <time>2024-10-19T23:57:15Z</time>
      </trkpt>
      <trkpt lat="45.6893" lon="4.35675">
        <ele>538</ele>
        <time>2024-10-19T23:57:19Z</time>
      </trkpt>
      <trkpt lat="45.68909" lon="4.35696">
        <ele>542</ele>
        <time>2024-10-19T23:57:39Z</time>
      </trkpt>
      <trkpt lat="45.68899" lon="4.3571">
        <ele>544</ele>
        <time>2024-10-19T23:57:51Z</time>
      </trkpt>
      <trkpt lat="45.68897" lon="4.3572">
        <ele>545</ele>
        <time>2024-10-19T23:57:56Z</time>
      </trkpt>
      <trkpt lat="45.68898" lon="4.35759">
        <ele>548</ele>
        <time>2024-10-19T23:58:18Z</time>
      </trkpt>
      <trkpt lat="45.68907" lon="4.3584">
        <ele>552</ele>
        <time>2024-10-19T23:59:04Z</time>
      </trkpt>
      <trkpt lat="45.68908" lon="4.35849">
        <ele>552</ele>
        <time>2024-10-19T23:59:09Z</time>
      </trkpt>
      <trkpt lat="45.68904" lon="4.35857">
        <ele>552</ele>
        <time>2024-10-19T23:59:15Z</time>
      </trkpt>
      <trkpt lat="45.68893" lon="4.35869">
        <ele>554</ele>
        <time>2024-10-19T23:59:26Z</time>
      </trkpt>
      <trkpt lat="45.68863" lon="4.35896">
        <ele>558</ele>
        <time>2024-10-19T23:59:54Z</time>
      </trkpt>
      <trkpt lat="45.68846" lon="4.35898">
        <ele>560</ele>
        <time>2024-10-20T00:00:08Z</time>
      </trkpt>
      <trkpt lat="45.68802" lon="4.35909">
        <ele>563</ele>
        <time>2024-10-20T00:00:44Z</time>
      </trkpt>
      <trkpt lat="45.68797" lon="4.3591">
        <ele>563</ele>
        <time>2024-10-20T00:00:48Z</time>
      </trkpt>
      <trkpt lat="45.68796" lon="4.35932">
        <ele>564</ele>
        <time>2024-10-20T00:01:00Z</time>
      </trkpt>
      <trkpt lat="45.68788" lon="4.35944">
        <ele>564</ele>
        <time>2024-10-20T00:01:09Z</time>
      </trkpt>
      <trkpt lat="45.68752" lon="4.36088">
        <ele>567</ele>
        <time>2024-10-20T00:02:35Z</time>
      </trkpt>
      <trkpt lat="45.68754" lon="4.36156">
        <ele>565</ele>
        <time>2024-10-20T00:03:13Z</time>
      </trkpt>
      <trkpt lat="45.68753" lon="4.36182">
        <ele>565</ele>
        <time>2024-10-20T00:03:27Z</time>
      </trkpt>
      <trkpt lat="45.68751" lon="4.36195">
        <ele>565</ele>
        <time>2024-10-20T00:03:35Z</time>
      </trkpt>
      <trkpt lat="45.68751" lon="4.36199">
        <ele>565</ele>
        <time>2024-10-20T00:03:37Z</time>
      </trkpt>
      <trkpt lat="45.68751" lon="4.36195">
        <ele>565</ele>
        <time>2024-10-20T00:03:39Z</time>
      </trkpt>
      <trkpt lat="45.68745" lon="4.36193">
        <ele>564</ele>
        <time>2024-10-20T00:03:44Z</time>
      </trkpt>
      <trkpt lat="45.6874" lon="4.36187">
        <ele>564</ele>
        <time>2024-10-20T00:03:49Z</time>
      </trkpt>
      <trkpt lat="45.68715" lon="4.36148">
        <ele>562</ele>
        <time>2024-10-20T00:04:19Z</time>
      </trkpt>
      <trkpt lat="45.68707" lon="4.36142">
        <ele>561</ele>
        <time>2024-10-20T00:04:26Z</time>
      </trkpt>
      <trkpt lat="45.6863" lon="4.36119">
        <ele>554</ele>
        <time>2024-10-20T00:05:29Z</time>
      </trkpt>
      <trkpt lat="45.68617" lon="4.36119">
        <ele>552</ele>
        <time>2024-10-20T00:05:40Z</time>
      </trkpt>
      <trkpt lat="45.68585" lon="4.36114">
        <ele>549</ele>
        <time>2024-10-20T00:06:05Z</time>
      </trkpt>
      <trkpt lat="45.68542" lon="4.36123">
        <ele>542</ele>
        <time>2024-10-20T00:06:40Z</time>
      </trkpt>
      <trkpt lat="45.68532" lon="4.36126">
        <ele>541</ele>
        <time>2024-10-20T00:06:48Z</time>
      </trkpt>
      <trkpt lat="45.6851" lon="4.36128">
        <ele>538</ele>
        <time>2024-10-20T00:07:06Z</time>
      </trkpt>
      <trkpt lat="45.68499" lon="4.36133">
        <ele>536</ele>
        <time>2024-10-20T00:07:15Z</time>
      </trkpt>
      <trkpt lat="45.68458" lon="4.36155">
        <ele>530</ele>
        <time>2024-10-20T00:07:50Z</time>
      </trkpt>
      <trkpt lat="45.68449" lon="4.36164">
        <ele>528</ele>
        <time>2024-10-20T00:07:59Z</time>
      </trkpt>
      <trkpt lat="45.68439" lon="4.3617">
        <ele>527</ele>
        <time>2024-10-20T00:08:08Z</time>
      </trkpt>
      <trkpt lat="45.6843" lon="4.36178">
        <ele>525</ele>
        <time>2024-10-20T00:08:16Z</time>
      </trkpt>
      <trkpt lat="45.68399" lon="4.36224">
        <ele>513</ele>
        <time>2024-10-20T00:08:52Z</time>
      </trkpt>
      <trkpt lat="45.68379" lon="4.36266">
        <ele>505</ele>
        <time>2024-10-20T00:09:21Z</time>
      </trkpt>
      <trkpt lat="45.68375" lon="4.36266">
        <ele>504</ele>
        <time>2024-10-20T00:09:24Z</time>
      </trkpt>
      <trkpt lat="45.68361" lon="4.36253">
        <ele>503</ele>
        <time>2024-10-20T00:09:37Z</time>
      </trkpt>
      <trkpt lat="45.68346" lon="4.36231">
        <ele>503</ele>
        <time>2024-10-20T00:09:54Z</time>
      </trkpt>
      <trkpt lat="45.68331" lon="4.36201">
        <ele>503</ele>
        <time>2024-10-20T00:10:15Z</time>
      </trkpt>
      <trkpt lat="45.68328" lon="4.362">
        <ele>503</ele>
        <time>2024-10-20T00:10:17Z</time>
      </trkpt>
      <trkpt lat="45.68307" lon="4.36201">
        <ele>500</ele>
        <time>2024-10-20T00:10:34Z</time>
      </trkpt>
      <trkpt lat="45.68306" lon="4.36198">
        <ele>500</ele>
        <time>2024-10-20T00:10:36Z</time>
      </trkpt>
      <trkpt lat="45.68307" lon="4.36201">
        <ele>500</ele>
        <time>2024-10-20T00:10:38Z</time>
      </trkpt>
      <trkpt lat="45.68308" lon="4.36209">
        <ele>499</ele>
        <time>2024-10-20T00:10:42Z</time>
      </trkpt>
      <trkpt lat="45.68307" lon="4.3623">
        <ele>498</ele>
        <time>2024-10-20T00:10:54Z</time>
      </trkpt>
      <trkpt lat="45.68304" lon="4.36248">
        <ele>496</ele>
        <time>2024-10-20T00:11:05Z</time>
      </trkpt>
      <trkpt lat="45.683" lon="4.36266">
        <ele>495</ele>
        <time>2024-10-20T00:11:15Z</time>
      </trkpt>
      <trkpt lat="45.68293" lon="4.36285">
        <ele>493</ele>
        <time>2024-10-20T00:11:27Z</time>
      </trkpt>
      <trkpt lat="45.68281" lon="4.363">
        <ele>492</ele>
        <time>2024-10-20T00:11:40Z</time>
      </trkpt>
      <trkpt lat="45.68268" lon="4.36311">
        <ele>491</ele>
        <time>2024-10-20T00:11:52Z</time>
      </trkpt>
      <trkpt lat="45.68255" lon="4.36318">
        <ele>490</ele>
        <time>2024-10-20T00:12:03Z</time>
      </trkpt>
      <trkpt lat="45.68239" lon="4.36323">
        <ele>491</ele>
        <time>2024-10-20T00:12:16Z</time>
      </trkpt>
      <trkpt lat="45.68222" lon="4.36323">
        <ele>492</ele>
        <time>2024-10-20T00:12:30Z</time>
      </trkpt>
      <trkpt lat="45.68201" lon="4.36314">
        <ele>493</ele>
        <time>2024-10-20T00:12:47Z</time>
      </trkpt>
      <trkpt lat="45.68179" lon="4.36301">
        <ele>494</ele>
        <time>2024-10-20T00:13:06Z</time>
      </trkpt>
      <trkpt lat="45.68166" lon="4.36289">
        <ele>494</ele>
        <time>2024-10-20T00:13:19Z</time>
      </trkpt>
      <trkpt lat="45.68156" lon="4.36273">
        <ele>494</ele>
        <time>2024-10-20T00:13:31Z</time>
      </trkpt>
      <trkpt lat="45.6815" lon="4.36251">
        <ele>493</ele>
        <time>2024-10-20T00:13:44Z</time>
      </trkpt>
      <trkpt lat="45.68149" lon="4.36229">
        <ele>494</ele>
        <time>2024-10-20T00:13:56Z</time>
      </trkpt>
      <trkpt lat="45.6815" lon="4.36216">
        <ele>495</ele>
        <time>2024-10-20T00:14:04Z</time>
      </trkpt>
      <trkpt lat="45.68097" lon="4.36181">
        <ele>502</ele>
        <time>2024-10-20T00:14:50Z</time>
      </trkpt>
      <trkpt lat="45.67998" lon="4.36168">
        <ele>514</ele>
        <time>2024-10-20T00:16:10Z</time>
      </trkpt>
      <trkpt lat="45.6789" lon="4.36151">
        <ele>519</ele>
        <time>2024-10-20T00:17:37Z</time>
      </trkpt>
      <trkpt lat="45.67859" lon="4.36089">
        <ele>526</ele>
        <time>2024-10-20T00:18:20Z</time>
      </trkpt>
      <trkpt lat="45.67848" lon="4.36007">
        <ele>539</ele>
        <time>2024-10-20T00:19:06Z</time>
      </trkpt>
      <trkpt lat="45.67795" lon="4.35878">
        <ele>554</ele>
        <time>2024-10-20T00:20:30Z</time>
      </trkpt>
      <trkpt lat="45.67789" lon="4.35867">
        <ele>555</ele>
        <time>2024-10-20T00:20:38Z</time>
      </trkpt>
      <trkpt lat="45.67787" lon="4.35854">
        <ele>556</ele>
        <time>2024-10-20T00:20:45Z</time>
      </trkpt>
      <trkpt lat="45.67786" lon="4.35839">
        <ele>558</ele>
        <time>2024-10-20T00:20:54Z</time>
      </trkpt>
      <trkpt lat="45.67787" lon="4.35779">
        <ele>564</ele>
        <time>2024-10-20T00:21:27Z</time>
      </trkpt>
      <trkpt lat="45.67782" lon="4.35756">
        <ele>566</ele>
        <time>2024-10-20T00:21:41Z</time>
      </trkpt>
      <trkpt lat="45.67778" lon="4.35742">
        <ele>567</ele>
        <time>2024-10-20T00:21:49Z</time>
      </trkpt>
      <trkpt lat="45.67759" lon="4.35725">
        <ele>567</ele>
        <time>2024-10-20T00:22:07Z</time>
      </trkpt>
      <trkpt lat="45.67755" lon="4.35716">
        <ele>568</ele>
        <time>2024-10-20T00:22:13Z</time>
      </trkpt>
      <trkpt lat="45.67755" lon="4.35708">
        <ele>568</ele>
        <time>2024-10-20T00:22:18Z</time>
      </trkpt>
      <trkpt lat="45.67762" lon="4.35661">
        <ele>570</ele>
        <time>2024-10-20T00:22:45Z</time>
      </trkpt>
      <trkpt lat="45.67761" lon="4.35643">
        <ele>569</ele>
        <time>2024-10-20T00:22:55Z</time>
      </trkpt>
      <trkpt lat="45.6775" lon="4.35636">
        <ele>569</ele>
        <time>2024-10-20T00:23:04Z</time>
      </trkpt>
      <trkpt lat="45.67744" lon="4.35631">
        <ele>569</ele>
        <time>2024-10-20T00:23:10Z</time>
      </trkpt>
      <trkpt lat="45.67664" lon="4.35634">
        <ele>572</ele>
        <time>2024-10-20T00:24:14Z</time>
      </trkpt>
      <trkpt lat="45.67658" lon="4.35634">
        <ele>573</ele>
        <time>2024-10-20T00:24:19Z</time>
      </trkpt>
      <trkpt lat="45.67651" lon="4.35628">
        <ele>574</ele>
        <time>2024-10-20T00:24:25Z</time>
      </trkpt>
      <trkpt lat="45.67642" lon="4.35607">
        <ele>574</ele>
        <time>2024-10-20T00:24:39Z</time>
      </trkpt>
      <trkpt lat="45.67635" lon="4.35539">
        <ele>569</ele>
        <time>2024-10-20T00:25:18Z</time>
      </trkpt>
      <trkpt lat="45.67634" lon="4.35528">
        <ele>567</ele>
        <time>2024-10-20T00:25:24Z</time>
      </trkpt>
      <trkpt lat="45.67624" lon="4.35515">
        <ele>567</ele>
        <time>2024-10-20T00:25:35Z</time>
      </trkpt>
      <trkpt lat="45.67604" lon="4.35479">
        <ele>563</ele>
        <time>2024-10-20T00:26:00Z</time>
      </trkpt>
      <trkpt lat="45.67593" lon="4.35466">
        <ele>562</ele>
        <time>2024-10-20T00:26:12Z</time>
      </trkpt>
      <trkpt lat="45.67558" lon="4.35433">
        <ele>559</ele>
        <time>2024-10-20T00:26:45Z</time>
      </trkpt>
      <trkpt lat="45.6755" lon="4.35429">
        <ele>559</ele>
        <time>2024-10-20T00:26:52Z</time>
      </trkpt>
      <trkpt lat="45.67494" lon="4.35414">
        <ele>559</ele>
        <time>2024-10-20T00:27:38Z</time>
      </trkpt>
      <trkpt lat="45.67464" lon="4.35407">
        <ele>560</ele>
        <time>2024-10-20T00:28:02Z</time>
      </trkpt>
      <trkpt lat="45.67447" lon="4.35408">
        <ele>562</ele>
        <time>2024-10-20T00:28:16Z</time>
      </trkpt>
      <trkpt lat="45.67439" lon="4.35405">
        <ele>562</ele>
        <time>2024-10-20T00:28:22Z</time>
      </trkpt>
      <trkpt lat="45.67438" lon="4.35395">
        <ele>562</ele>
        <time>2024-10-20T00:28:28Z</time>
      </trkpt>
      <trkpt lat="45.67442" lon="4.35377">
        <ele>561</ele>
        <time>2024-10-20T00:28:38Z</time>
      </trkpt>
      <trkpt lat="45.67455" lon="4.35352">
        <ele>558</ele>
        <time>2024-10-20T00:28:56Z</time>
      </trkpt>
      <trkpt lat="45.6746" lon="4.35331">
        <ele>556</ele>
        <time>2024-10-20T00:29:08Z</time>
      </trkpt>
      <trkpt lat="45.67469" lon="4.35311">
        <ele>554</ele>
        <time>2024-10-20T00:29:22Z</time>
      </trkpt>
      <trkpt lat="45.6747" lon="4.35285">
        <ele>553</ele>
        <time>2024-10-20T00:29:36Z</time>
      </trkpt>
      <trkpt lat="45.67463" lon="4.35266">
        <ele>554</ele>
        <time>2024-10-20T00:29:48Z</time>
      </trkpt>
      <trkpt lat="45.67452" lon="4.35244">
        <ele>555</ele>
        <time>2024-10-20T00:30:03Z</time>
      </trkpt>
      <trkpt lat="45.67454" lon="4.35235">
        <ele>555</ele>
        <time>2024-10-20T00:30:09Z</time>
      </trkpt>
      <trkpt lat="45.67473" lon="4.35209">
        <ele>555</ele>
        <time>2024-10-20T00:30:30Z</time>
      </trkpt>
      <trkpt lat="45.67476" lon="4.35199">
        <ele>555</ele>
        <time>2024-10-20T00:30:36Z</time>
      </trkpt>
      <trkpt lat="45.67472" lon="4.35158">
        <ele>558</ele>
        <time>2024-10-20T00:30:59Z</time>
      </trkpt>
      <trkpt lat="45.67467" lon="4.3512">
        <ele>563</ele>
        <time>2024-10-20T00:31:21Z</time>
      </trkpt>
      <trkpt lat="45.67466" lon="4.35081">
        <ele>567</ele>
        <time>2024-10-20T00:31:42Z</time>
      </trkpt>
      <trkpt lat="45.6747" lon="4.35057">
        <ele>569</ele>
        <time>2024-10-20T00:31:56Z</time>
      </trkpt>
      <trkpt lat="45.67473" lon="4.35">
        <ele>575</ele>
        <time>2024-10-20T00:32:28Z</time>
      </trkpt>
      <trkpt lat="45.67479" lon="4.34945">
        <ele>582</ele>
        <time>2024-10-20T00:32:59Z</time>
      </trkpt>
      <trkpt lat="45.67468" lon="4.34891">
        <ele>588</ele>
        <time>2024-10-20T00:33:31Z</time>
      </trkpt>
      <trkpt lat="45.67467" lon="4.3488">
        <ele>590</ele>
        <time>2024-10-20T00:33:37Z</time>
      </trkpt>
      <trkpt lat="45.67481" lon="4.34818">
        <ele>595</ele>
        <time>2024-10-20T00:34:13Z</time>
      </trkpt>
      <trkpt lat="45.67481" lon="4.34809">
        <ele>595</ele>
        <time>2024-10-20T00:34:19Z</time>
      </trkpt>
      <trkpt lat="45.6748" lon="4.34805">
        <ele>596</ele>
        <time>2024-10-20T00:34:21Z</time>
      </trkpt>
      <trkpt lat="45.67484" lon="4.34805">
        <ele>596</ele>
        <time>2024-10-20T00:34:24Z</time>
      </trkpt>
      <trkpt lat="45.6748" lon="4.34805">
        <ele>596</ele>
        <time>2024-10-20T00:34:27Z</time>
      </trkpt>
      <trkpt lat="45.67478" lon="4.34791">
        <ele>596</ele>
        <time>2024-10-20T00:34:35Z</time>
      </trkpt>
      <trkpt lat="45.67467" lon="4.34747">
        <ele>598</ele>
        <time>2024-10-20T00:35:01Z</time>
      </trkpt>
      <trkpt lat="45.67454" lon="4.34708">
        <ele>598</ele>
        <time>2024-10-20T00:35:26Z</time>
      </trkpt>
      <trkpt lat="45.67439" lon="4.34639">
        <ele>598</ele>
        <time>2024-10-20T00:36:06Z</time>
      </trkpt>
      <trkpt lat="45.67429" lon="4.34553">
        <ele>595</ele>
        <time>2024-10-20T00:36:55Z</time>
      </trkpt>
      <trkpt lat="45.67415" lon="4.34472">
        <ele>594</ele>
        <time>2024-10-20T00:37:41Z</time>
      </trkpt>
      <trkpt lat="45.67412" lon="4.34434">
        <ele>592</ele>
        <time>2024-10-20T00:38:03Z</time>
      </trkpt>
      <trkpt lat="45.67414" lon="4.34382">
        <ele>589</ele>
        <time>2024-10-20T00:38:32Z</time>
      </trkpt>
      <trkpt lat="45.67414" lon="4.34359">
        <ele>588</ele>
        <time>2024-10-20T00:38:45Z</time>
      </trkpt>
      <trkpt lat="45.67403" lon="4.34265">
        <ele>584</ele>
        <time>2024-10-20T00:39:38Z</time>
      </trkpt>
      <trkpt lat="45.67401" lon="4.34217">
        <ele>581</ele>
        <time>2024-10-20T00:40:05Z</time>
      </trkpt>
      <trkpt lat="45.67402" lon="4.34195">
        <ele>579</ele>
        <time>2024-10-20T00:40:17Z</time>
      </trkpt>
      <trkpt lat="45.67407" lon="4.34146">
        <ele>577</ele>
        <time>2024-10-20T00:40:45Z</time>
      </trkpt>
      <trkpt lat="45.67407" lon="4.34134">
        <ele>576</ele>
        <time>2024-10-20T00:40:52Z</time>
      </trkpt>
      <trkpt lat="45.67404" lon="4.34125">
        <ele>576</ele>
        <time>2024-10-20T00:40:57Z</time>
      </trkpt>
      <trkpt lat="45.67408" lon="4.34091">
        <ele>574</ele>
        <time>2024-10-20T00:41:17Z</time>
      </trkpt>
      <trkpt lat="45.67407" lon="4.34058">
        <ele>573</ele>
        <time>2024-10-20T00:41:35Z</time>
      </trkpt>
      <trkpt lat="45.67402" lon="4.34009">
        <ele>572</ele>
        <time>2024-10-20T00:42:03Z</time>
      </trkpt>
      <trkpt lat="45.67396" lon="4.33979">
        <ele>571</ele>
        <time>2024-10-20T00:42:20Z</time>
      </trkpt>
      <trkpt lat="45.67387" lon="4.33944">
        <ele>570</ele>
        <time>2024-10-20T00:42:41Z</time>
      </trkpt>
      <trkpt lat="45.67377" lon="4.33916">
        <ele>570</ele>
        <time>2024-10-20T00:42:59Z</time>
      </trkpt>
      <trkpt lat="45.6737" lon="4.33901">
        <ele>569</ele>
        <time>2024-10-20T00:43:09Z</time>
      </trkpt>
      <trkpt lat="45.67359" lon="4.33888">
        <ele>569</ele>
        <time>2024-10-20T00:43:20Z</time>
      </trkpt>
      <trkpt lat="45.67358" lon="4.33885">
        <ele>569</ele>
        <time>2024-10-20T00:43:22Z</time>
      </trkpt>
      <trkpt lat="45.67359" lon="4.33888">
        <ele>569</ele>
        <time>2024-10-20T00:43:24Z</time>
      </trkpt>
      <trkpt lat="45.67353" lon="4.33897">
        <ele>569</ele>
        <time>2024-10-20T00:43:31Z</time>
      </trkpt>
      <trkpt lat="45.6735" lon="4.33918">
        <ele>569</ele>
        <time>2024-10-20T00:43:43Z</time>
      </trkpt>
      <trkpt lat="45.67332" lon="4.33935">
        <ele>569</ele>
        <time>2024-10-20T00:44:00Z</time>
      </trkpt>
      <trkpt lat="45.67323" lon="4.3394">
        <ele>568</ele>
        <time>2024-10-20T00:44:08Z</time>
      </trkpt>
      <trkpt lat="45.67316" lon="4.33942">
        <ele>568</ele>
        <time>2024-10-20T00:44:14Z</time>
      </trkpt>
      <trkpt lat="45.67291" lon="4.33939">
        <ele>564</ele>
        <time>2024-10-20T00:44:34Z</time>
      </trkpt>
      <trkpt lat="45.67242" lon="4.33926">
        <ele>557</ele>
        <time>2024-10-20T00:45:14Z</time>
      </trkpt>
      <trkpt lat="45.6723" lon="4.33926">
        <ele>556</ele>
        <time>2024-10-20T00:45:23Z</time>
      </trkpt>
      <trkpt lat="45.6721" lon="4.33931">
        <ele>553</ele>
        <time>2024-10-20T00:45:40Z</time>
      </trkpt>
      <trkpt lat="45.67172" lon="4.33932">
        <ele>548</ele>
        <time>2024-10-20T00:46:10Z</time>
      </trkpt>
      <trkpt lat="45.67141" lon="4.33941">
        <ele>544</ele>
        <time>2024-10-20T00:46:35Z</time>
      </trkpt>
      <trkpt lat="45.67124" lon="4.3396">
        <ele>542</ele>
        <time>2024-10-20T00:46:53Z</time>
      </trkpt>
      <trkpt lat="45.6709" lon="4.34015">
        <ele>539</ele>
        <time>2024-10-20T00:47:34Z</time>
      </trkpt>
      <trkpt lat="45.67085" lon="4.34026">
        <ele>538</ele>
        <time>2024-10-20T00:47:41Z</time>
      </trkpt>
      <trkpt lat="45.67082" lon="4.34037">
        <ele>538</ele>
        <time>2024-10-20T00:47:48Z</time>
      </trkpt>
      <trkpt lat="45.67077" lon="4.34088">
        <ele>539</ele>
        <time>2024-10-20T00:48:16Z</time>
      </trkpt>
      <trkpt lat="45.67072" lon="4.34101">
        <ele>540</ele>
        <time>2024-10-20T00:48:25Z</time>
      </trkpt>
      <trkpt lat="45.67051" lon="4.34129">
        <ele>540</ele>
        <time>2024-10-20T00:48:48Z</time>
      </trkpt>
      <trkpt lat="45.67039" lon="4.34141">
        <ele>540</ele>
        <time>2024-10-20T00:48:59Z</time>
      </trkpt>
      <trkpt lat="45.67016" lon="4.34158">
        <ele>539</ele>
        <time>2024-10-20T00:49:20Z</time>
      </trkpt>
      <trkpt lat="45.67007" lon="4.34162">
        <ele>538</ele>
        <time>2024-10-20T00:49:28Z</time>
      </trkpt>
      <trkpt lat="45.67" lon="4.34162">
        <ele>538</ele>
        <time>2024-10-20T00:49:33Z</time>
      </trkpt>
      <trkpt lat="45.66996" lon="4.34159">
        <ele>539</ele>
        <time>2024-10-20T00:49:37Z</time>
      </trkpt>
      <trkpt lat="45.66981" lon="4.34137">
        <ele>543</ele>
        <time>2024-10-20T00:49:54Z</time>
      </trkpt>
      <trkpt lat="45.66976" lon="4.34133">
        <ele>544</ele>
        <time>2024-10-20T00:49:59Z</time>
      </trkpt>
      <trkpt lat="45.66959" lon="4.34101">
        <ele>548</ele>
        <time>2024-10-20T00:50:21Z</time>
      </trkpt>
      <trkpt lat="45.66949" lon="4.34088">
        <ele>550</ele>
        <time>2024-10-20T00:50:32Z</time>
      </trkpt>
      <trkpt lat="45.66946" lon="4.34082">
        <ele>551</ele>
        <time>2024-10-20T00:50:36Z</time>
      </trkpt>
      <trkpt lat="45.6694" lon="4.34051">
        <ele>551</ele>
        <time>2024-10-20T00:50:54Z</time>
      </trkpt>
      <trkpt lat="45.66942" lon="4.3403">
        <ele>551</ele>
        <time>2024-10-20T00:51:06Z</time>
      </trkpt>
      <trkpt lat="45.66941" lon="4.34012">
        <ele>550</ele>
        <time>2024-10-20T00:51:16Z</time>
      </trkpt>
      <trkpt lat="45.66937" lon="4.33992">
        <ele>551</ele>
        <time>2024-10-20T00:51:28Z</time>
      </trkpt>
      <trkpt lat="45.66931" lon="4.3397">
        <ele>552</ele>
        <time>2024-10-20T00:51:41Z</time>
      </trkpt>
      <trkpt lat="45.66919" lon="4.33943">
        <ele>554</ele>
        <time>2024-10-20T00:51:59Z</time>
      </trkpt>
      <trkpt lat="45.66917" lon="4.33943">
        <ele>555</ele>
        <time>2024-10-20T00:52:00Z</time>
      </trkpt>
      <trkpt lat="45.66913" lon="4.33928">
        <ele>554</ele>
        <time>2024-10-20T00:52:09Z</time>
      </trkpt>
      <trkpt lat="45.66897" lon="4.33893">
        <ele>553</ele>
        <time>2024-10-20T00:52:33Z</time>
      </trkpt>
      <trkpt lat="45.66892" lon="4.33876">
        <ele>552</ele>
        <time>2024-10-20T00:52:43Z</time>
      </trkpt>
      <trkpt lat="45.6687" lon="4.33775">
        <ele>549</ele>
        <time>2024-10-20T00:53:42Z</time>
      </trkpt>
      <trkpt lat="45.66861" lon="4.33727">
        <ele>547</ele>
        <time>2024-10-20T00:54:10Z</time>
      </trkpt>
      <trkpt lat="45.66866" lon="4.33707">
        <ele>545</ele>
        <time>2024-10-20T00:54:22Z</time>
      </trkpt>
      <trkpt lat="45.6688" lon="4.33651">
        <ele>539</ele>
        <time>2024-10-20T00:54:55Z</time>
      </trkpt>
      <trkpt lat="45.66885" lon="4.33614">
        <ele>535</ele>
        <time>2024-10-20T00:55:16Z</time>
      </trkpt>
      <trkpt lat="45.66886" lon="4.33595">
        <ele>533</ele>
        <time>2024-10-20T00:55:27Z</time>
      </trkpt>
      <trkpt lat="45.66883" lon="4.33569">
        <ele>530</ele>
        <time>2024-10-20T00:55:42Z</time>
      </trkpt>
      <trkpt lat="45.66872" lon="4.33512">
        <ele>523</ele>
        <time>2024-10-20T00:56:15Z</time>
      </trkpt>
      <trkpt lat="45.6687" lon="4.33476">
        <ele>519</ele>
        <time>2024-10-20T00:56:35Z</time>
      </trkpt>
      <trkpt lat="45.66871" lon="4.33458">
        <ele>517</ele>
        <time>2024-10-20T00:56:45Z</time>
      </trkpt>
      <trkpt lat="45.66879" lon="4.33405">
        <ele>512</ele>
        <time>2024-10-20T00:57:16Z</time>
      </trkpt>
      <trkpt lat="45.66883" lon="4.33388">
        <ele>512</ele>
        <time>2024-10-20T00:57:26Z</time>
      </trkpt>
      <trkpt lat="45.66895" lon="4.33352">
        <ele>510</ele>
        <time>2024-10-20T00:57:48Z</time>
      </trkpt>
      <trkpt lat="45.66915" lon="4.33314">
        <ele>506</ele>
        <time>2024-10-20T00:58:15Z</time>
      </trkpt>
      <trkpt lat="45.66917" lon="4.33301">
        <ele>506</ele>
        <time>2024-10-20T00:58:22Z</time>
      </trkpt>
      <trkpt lat="45.66922" lon="4.33196">
        <ele>505</ele>
        <time>2024-10-20T00:59:21Z</time>
      </trkpt>
      <trkpt lat="45.66912" lon="4.33101">
        <ele>501</ele>
        <time>2024-10-20T01:00:15Z</time>
      </trkpt>
      <trkpt lat="45.669" lon="4.33057">
        <ele>500</ele>
        <time>2024-10-20T01:00:41Z</time>
      </trkpt>
      <trkpt lat="45.66896" lon="4.33033">
        <ele>499</ele>
        <time>2024-10-20T01:00:55Z</time>
      </trkpt>
      <trkpt lat="45.66894" lon="4.33003">
        <ele>497</ele>
        <time>2024-10-20T01:01:12Z</time>
      </trkpt>
      <trkpt lat="45.66897" lon="4.32989">
        <ele>496</ele>
        <time>2024-10-20T01:01:20Z</time>
      </trkpt>
      <trkpt lat="45.66904" lon="4.32967">
        <ele>494</ele>
        <time>2024-10-20T01:01:33Z</time>
      </trkpt>
      <trkpt lat="45.66937" lon="4.32889">
        <ele>491</ele>
        <time>2024-10-20T01:02:24Z</time>
      </trkpt>
      <trkpt lat="45.66968" lon="4.32842">
        <ele>490</ele>
        <time>2024-10-20T01:03:01Z</time>
      </trkpt>
      <trkpt lat="45.66986" lon="4.32822">
        <ele>489</ele>
        <time>2024-10-20T01:03:19Z</time>
      </trkpt>
      <trkpt lat="45.67015" lon="4.32794">
        <ele>489</ele>
        <time>2024-10-20T01:03:47Z</time>
      </trkpt>
      <trkpt lat="45.6703" lon="4.32777">
        <ele>488</ele>
        <time>2024-10-20T01:04:02Z</time>
      </trkpt>
      <trkpt lat="45.6707" lon="4.32709">
        <ele>484</ele>
        <time>2024-10-20T01:04:52Z</time>
      </trkpt>
      <trkpt lat="45.67085" lon="4.32675">
        <ele>482</ele>
        <time>2024-10-20T01:05:14Z</time>
      </trkpt>
      <trkpt lat="45.67115" lon="4.32637">
        <ele>485</ele>
        <time>2024-10-20T01:05:47Z</time>
      </trkpt>
      <trkpt lat="45.67132" lon="4.32603">
        <ele>485</ele>
        <time>2024-10-20T01:06:10Z</time>
      </trkpt>
      <trkpt lat="45.67137" lon="4.32576">
        <ele>484</ele>
        <time>2024-10-20T01:06:26Z</time>
      </trkpt>
      <trkpt lat="45.6714" lon="4.32526">
        <ele>483</ele>
        <time>2024-10-20T01:06:54Z</time>
      </trkpt>
      <trkpt lat="45.67148" lon="4.32503">
        <ele>480</ele>
        <time>2024-10-20T01:07:08Z</time>
      </trkpt>
      <trkpt lat="45.67183" lon="4.32445">
        <ele>472</ele>
        <time>2024-10-20T01:07:51Z</time>
      </trkpt>
      <trkpt lat="45.67201" lon="4.32421">
        <ele>470</ele>
        <time>2024-10-20T01:08:11Z</time>
      </trkpt>
      <trkpt lat="45.67239" lon="4.3238">
        <ele>470</ele>
        <time>2024-10-20T01:08:49Z</time>
      </trkpt>
      <trkpt lat="45.67249" lon="4.32366">
        <ele>469</ele>
        <time>2024-10-20T01:09:00Z</time>
      </trkpt>
      <trkpt lat="45.67261" lon="4.32347">
        <ele>469</ele>
        <time>2024-10-20T01:09:14Z</time>
      </trkpt>
      <trkpt lat="45.67284" lon="4.3232">
        <ele>469</ele>
        <time>2024-10-20T01:09:38Z</time>
      </trkpt>
      <trkpt lat="45.67313" lon="4.32273">
        <ele>468</ele>
        <time>2024-10-20T01:10:13Z</time>
      </trkpt>
      <trkpt lat="45.67342" lon="4.32251">
        <ele>462</ele>
        <time>2024-10-20T01:10:39Z</time>
      </trkpt>
      <trkpt lat="45.67362" lon="4.32239">
        <ele>463</ele>
        <time>2024-10-20T01:10:57Z</time>
      </trkpt>
      <trkpt lat="45.67375" lon="4.32226">
        <ele>464</ele>
        <time>2024-10-20T01:11:09Z</time>
      </trkpt>
      <trkpt lat="45.67444" lon="4.321">
        <ele>458</ele>
        <time>2024-10-20T01:12:39Z</time>
      </trkpt>
      <trkpt lat="45.67454" lon="4.32075">
        <ele>457</ele>
        <time>2024-10-20T01:12:55Z</time>
      </trkpt>
      <trkpt lat="45.67458" lon="4.32058">
        <ele>456</ele>
        <time>2024-10-20T01:13:05Z</time>
      </trkpt>
      <trkpt lat="45.67459" lon="4.32041">
        <ele>455</ele>
        <time>2024-10-20T01:13:15Z</time>
      </trkpt>
      <trkpt lat="45.6746" lon="4.32032">
        <ele>455</ele>
        <time>2024-10-20T01:13:20Z</time>
      </trkpt>
      <trkpt lat="45.67466" lon="4.32016">
        <ele>454</ele>
        <time>2024-10-20T01:13:30Z</time>
      </trkpt>
      <trkpt lat="45.67473" lon="4.32005">
        <ele>453</ele>
        <time>2024-10-20T01:13:38Z</time>
      </trkpt>
      <trkpt lat="45.6751" lon="4.31979">
        <ele>453</ele>
        <time>2024-10-20T01:14:11Z</time>
      </trkpt>
      <trkpt lat="45.67534" lon="4.3195">
        <ele>454</ele>
        <time>2024-10-20T01:14:36Z</time>
      </trkpt>
      <trkpt lat="45.67549" lon="4.31941">
        <ele>453</ele>
        <time>2024-10-20T01:14:49Z</time>
      </trkpt>
      <trkpt lat="45.67567" lon="4.31937">
        <ele>451</ele>
        <time>2024-10-20T01:15:04Z</time>
      </trkpt>
      <trkpt lat="45.67581" lon="4.31936">
        <ele>449</ele>
        <time>2024-10-20T01:15:15Z</time>
      </trkpt>
      <trkpt lat="45.67606" lon="4.31946">
        <ele>446</ele>
        <time>2024-10-20T01:15:36Z</time>
      </trkpt>
      <trkpt lat="45.6764" lon="4.31964">
        <ele>443</ele>
        <time>2024-10-20T01:16:05Z</time>
      </trkpt>
      <trkpt lat="45.67665" lon="4.31971">
        <ele>440</ele>
        <time>2024-10-20T01:16:25Z</time>
      </trkpt>
      <trkpt lat="45.67676" lon="4.31972">
        <ele>440</ele>
        <time>2024-10-20T01:16:34Z</time>
      </trkpt>
      <trkpt lat="45.67688" lon="4.31967">
        <ele>440</ele>
        <time>2024-10-20T01:16:44Z</time>
      </trkpt>
      <trkpt lat="45.67698" lon="4.31961">
        <ele>439</ele>
        <time>2024-10-20T01:16:53Z</time>
      </trkpt>
      <trkpt lat="45.67706" lon="4.31951">
        <ele>440</ele>
        <time>2024-10-20T01:17:01Z</time>
      </trkpt>
      <trkpt lat="45.67713" lon="4.31939">
        <ele>440</ele>
        <time>2024-10-20T01:17:10Z</time>
      </trkpt>
      <trkpt lat="45.67716" lon="4.31917">
        <ele>441</ele>
        <time>2024-10-20T01:17:23Z</time>
      </trkpt>
      <trkpt lat="45.6772" lon="4.31922">
        <ele>441</ele>
        <time>2024-10-20T01:17:27Z</time>
      </trkpt>
      <trkpt lat="45.67716" lon="4.31917">
        <ele>441</ele>
        <time>2024-10-20T01:17:31Z</time>
      </trkpt>
      <trkpt lat="45.67703" lon="4.31884">
        <ele>441</ele>
        <time>2024-10-20T01:17:52Z</time>
      </trkpt>
      <trkpt lat="45.67685" lon="4.31845">
        <ele>439</ele>
        <time>2024-10-20T01:18:19Z</time>
      </trkpt>
      <trkpt lat="45.67678" lon="4.31824">
        <ele>438</ele>
        <time>2024-10-20T01:18:32Z</time>
      </trkpt>
      <trkpt lat="45.67688" lon="4.3174">
        <ele>439</ele>
        <time>2024-10-20T01:19:19Z</time>
      </trkpt>
      <trkpt lat="45.67696" lon="4.31696">
        <ele>439</ele>
        <time>2024-10-20T01:19:45Z</time>
      </trkpt>
      <trkpt lat="45.67708" lon="4.31653">
        <ele>439</ele>
        <time>2024-10-20T01:20:11Z</time>
      </trkpt>
      <trkpt lat="45.67715" lon="4.31643">
        <ele>439</ele>
        <time>2024-10-20T01:20:19Z</time>
      </trkpt>
      <trkpt lat="45.67736" lon="4.31641">
        <ele>440</ele>
        <time>2024-10-20T01:20:35Z</time>
      </trkpt>
      <trkpt lat="45.67751" lon="4.31643">
        <ele>442</ele>
        <time>2024-10-20T01:20:47Z</time>
      </trkpt>
      <trkpt lat="45.67779" lon="4.31649">
        <ele>443</ele>
        <time>2024-10-20T01:21:10Z</time>
      </trkpt>
      <trkpt lat="45.67827" lon="4.31663">
        <ele>447</ele>
        <time>2024-10-20T01:21:49Z</time>
      </trkpt>
      <trkpt lat="45.67862" lon="4.31665">
        <ele>450</ele>
        <time>2024-10-20T01:22:17Z</time>
      </trkpt>
      <trkpt lat="45.6792" lon="4.31662">
        <ele>454</ele>
        <time>2024-10-20T01:23:04Z</time>
      </trkpt>
      <trkpt lat="45.67936" lon="4.3166">
        <ele>456</ele>
        <time>2024-10-20T01:23:17Z</time>
      </trkpt>
      <trkpt lat="45.67954" lon="4.31654">
        <ele>458</ele>
        <time>2024-10-20T01:23:32Z</time>
      </trkpt>
      <trkpt lat="45.67995" lon="4.31652">
        <ele>463</ele>
        <time>2024-10-20T01:24:04Z</time>
      </trkpt>
      <trkpt lat="45.68" lon="4.31648">
        <ele>464</ele>
        <time>2024-10-20T01:24:09Z</time>
      </trkpt>
      <trkpt lat="45.68005" lon="4.31637">
        <ele>464</ele>
        <time>2024-10-20T01:24:16Z</time>
      </trkpt>
      <trkpt lat="45.68006" lon="4.31626">
        <ele>463</ele>
        <time>2024-10-20T01:24:23Z</time>
      </trkpt>
      <trkpt lat="45.68003" lon="4.31602">
        <ele>462</ele>
        <time>2024-10-20T01:24:36Z</time>
      </trkpt>
      <trkpt lat="45.67999" lon="4.31589">
        <ele>460</ele>
        <time>2024-10-20T01:24:44Z</time>
      </trkpt>
      <trkpt lat="45.67995" lon="4.31579">
        <ele>459</ele>
        <time>2024-10-20T01:24:51Z</time>
      </trkpt>
      <trkpt lat="45.67991" lon="4.31572">
        <ele>459</ele>
        <time>2024-10-20T01:24:56Z</time>
      </trkpt>
      <trkpt lat="45.67974" lon="4.31563">
        <ele>456</ele>
        <time>2024-10-20T01:25:10Z</time>
      </trkpt>
      <trkpt lat="45.67967" lon="4.31556">
        <ele>455</ele>
        <time>2024-10-20T01:25:17Z</time>
      </trkpt>
      <trkpt lat="45.67965" lon="4.31551">
        <ele>454</ele>
        <time>2024-10-20T01:25:20Z</time>
      </trkpt>
      <trkpt lat="45.67967" lon="4.31502">
        <ele>457</ele>
        <time>2024-10-20T01:25:48Z</time>
      </trkpt>
      <trkpt lat="45.67956" lon="4.31455">
        <ele>456</ele>
        <time>2024-10-20T01:26:15Z</time>
      </trkpt>
      <trkpt lat="45.67953" lon="4.31436">
        <ele>456</ele>
        <time>2024-10-20T01:26:26Z</time>
      </trkpt>
      <trkpt lat="45.67955" lon="4.31426">
        <ele>456</ele>
        <time>2024-10-20T01:26:32Z</time>
      </trkpt>
      <trkpt lat="45.67959" lon="4.31413">
        <ele>458</ele>
        <time>2024-10-20T01:26:40Z</time>
      </trkpt>
      <trkpt lat="45.67989" lon="4.31362">
        <ele>463</ele>
        <time>2024-10-20T01:27:17Z</time>
      </trkpt>
      <trkpt lat="45.67993" lon="4.31348">
        <ele>464</ele>
        <time>2024-10-20T01:27:26Z</time>
      </trkpt>
      <trkpt lat="45.68" lon="4.31276">
        <ele>466</ele>
        <time>2024-10-20T01:28:06Z</time>
      </trkpt>
      <trkpt lat="45.67997" lon="4.31237">
        <ele>466</ele>
        <time>2024-10-20T01:28:28Z</time>
      </trkpt>
      <trkpt lat="45.68004" lon="4.31164">
        <ele>467</ele>
        <time>2024-10-20T01:29:10Z</time>
      </trkpt>
      <trkpt lat="45.68007" lon="4.31139">
        <ele>467</ele>
        <time>2024-10-20T01:29:24Z</time>
      </trkpt>
      <trkpt lat="45.68011" lon="4.31134">
        <ele>467</ele>
        <time>2024-10-20T01:29:28Z</time>
      </trkpt>
      <trkpt lat="45.67994" lon="4.31092">
        <ele>469</ele>
        <time>2024-10-20T01:29:55Z</time>
      </trkpt>
      <trkpt lat="45.67982" lon="4.31053">
        <ele>468</ele>
        <time>2024-10-20T01:30:19Z</time>
      </trkpt>
      <trkpt lat="45.67971" lon="4.30983">
        <ele>467</ele>
        <time>2024-10-20T01:30:59Z</time>
      </trkpt>
      <trkpt lat="45.67953" lon="4.30908">
        <ele>466</ele>
        <time>2024-10-20T01:31:44Z</time>
      </trkpt>
      <trkpt lat="45.67917" lon="4.30785">
        <ele>461</ele>
        <time>2024-10-20T01:32:58Z</time>
      </trkpt>
      <trkpt lat="45.67905" lon="4.3075">
        <ele>459</ele>
        <time>2024-10-20T01:33:20Z</time>
      </trkpt>
      <trkpt lat="45.67897" lon="4.3073">
        <ele>458</ele>
        <time>2024-10-20T01:33:33Z</time>
      </trkpt>
      <trkpt lat="45.67889" lon="4.30715">
        <ele>458</ele>
        <time>2024-10-20T01:33:43Z</time>
      </trkpt>
      <trkpt lat="45.67816" lon="4.30588">
        <ele>454</ele>
        <time>2024-10-20T01:35:15Z</time>
      </trkpt>
      <trkpt lat="45.67803" lon="4.30557">
        <ele>453</ele>
        <time>2024-10-20T01:35:36Z</time>
      </trkpt>
      <trkpt lat="45.6778" lon="4.30491">
        <ele>451</ele>
        <time>2024-10-20T01:36:17Z</time>
      </trkpt>
      <trkpt lat="45.67771" lon="4.30458">
        <ele>452</ele>
        <time>2024-10-20T01:36:37Z</time>
      </trkpt>
      <trkpt lat="45.6775" lon="4.30397">
        <ele>454</ele>
        <time>2024-10-20T01:37:15Z</time>
      </trkpt>
      <trkpt lat="45.67748" lon="4.3038">
        <ele>454</ele>
        <time>2024-10-20T01:37:24Z</time>
      </trkpt>
      <trkpt lat="45.67748" lon="4.30363">
        <ele>454</ele>
        <time>2024-10-20T01:37:34Z</time>
      </trkpt>
      <trkpt lat="45.67753" lon="4.30305">
        <ele>453</ele>
        <time>2024-10-20T01:38:07Z</time>
      </trkpt>
      <trkpt lat="45.67753" lon="4.30293">
        <ele>452</ele>
        <time>2024-10-20T01:38:13Z</time>
      </trkpt>
      <trkpt lat="45.67745" lon="4.3027">
        <ele>451</ele>
        <time>2024-10-20T01:38:28Z</time>
      </trkpt>
      <trkpt lat="45.67738" lon="4.30261">
        <ele>450</ele>
        <time>2024-10-20T01:38:35Z</time>
      </trkpt>
      <trkpt lat="45.67718" lon="4.30241">
        <ele>448</ele>
        <time>2024-10-20T01:38:55Z</time>
      </trkpt>
      <trkpt lat="45.6771" lon="4.30228">
        <ele>447</ele>
        <time>2024-10-20T01:39:04Z</time>
      </trkpt>
      <trkpt lat="45.67706" lon="4.30215">
        <ele>447</ele>
        <time>2024-10-20T01:39:12Z</time>
      </trkpt>
      <trkpt lat="45.67705" lon="4.30102">
        <ele>443</ele>
        <time>2024-10-20T01:40:16Z</time>
      </trkpt>
    </trkseg>
  </trk>
</gpx>